sensor_id;sensor_type;location;lat;lon;timestamp;pressure;altitude;pressure_sealevel;temperature
7389;BMP180;3735;50.136;11.062;2022-07-29T00:00:45;98159.00;;;18.50
7389;BMP180;3735;50.136;11.062;2022-07-29T00:03:12;98156.00;;;18.50
7389;BMP180;3735;50.136;11.062;2022-07-29T00:05:40;98152.00;;;18.50
7389;BMP180;3735;50.136;11.062;2022-07-29T00:08:07;98146.00;;;18.50
7389;BMP180;3735;50.136;11.062;2022-07-29T00:10:33;98153.00;;;18.40
7389;BMP180;3735;50.136;11.062;2022-07-29T00:12:59;98156.00;;;18.40
7389;BMP180;3735;50.136;11.062;2022-07-29T00:15:25;98145.00;;;18.30
7389;BMP180;3735;50.136;11.062;2022-07-29T00:17:51;98150.00;;;18.20
7389;BMP180;3735;50.136;11.062;2022-07-29T00:20:17;98152.00;;;18.10
7389;BMP180;3735;50.136;11.062;2022-07-29T00:22:43;98146.00;;;18.00
7389;BMP180;3735;50.136;11.062;2022-07-29T00:25:09;98149.00;;;18.00
7389;BMP180;3735;50.136;11.062;2022-07-29T00:27:37;98138.00;;;17.90
7389;BMP180;3735;50.136;11.062;2022-07-29T00:30:04;98140.00;;;17.90
7389;BMP180;3735;50.136;11.062;2022-07-29T00:32:30;98136.00;;;17.80
7389;BMP180;3735;50.136;11.062;2022-07-29T00:34:56;98131.00;;;17.70
7389;BMP180;3735;50.136;11.062;2022-07-29T00:37:41;98132.00;;;17.70
7389;BMP180;3735;50.136;11.062;2022-07-29T00:40:07;98134.00;;;17.60
7389;BMP180;3735;50.136;11.062;2022-07-29T00:42:45;98139.00;;;17.60
7389;BMP180;3735;50.136;11.062;2022-07-29T00:45:12;98133.00;;;17.60
7389;BMP180;3735;50.136;11.062;2022-07-29T00:47:38;98122.00;;;17.60
7389;BMP180;3735;50.136;11.062;2022-07-29T00:50:06;98119.00;;;17.60
7389;BMP180;3735;50.136;11.062;2022-07-29T00:52:35;98119.00;;;17.50
7389;BMP180;3735;50.136;11.062;2022-07-29T00:55:05;98116.00;;;17.50
7389;BMP180;3735;50.136;11.062;2022-07-29T00:57:31;98116.00;;;17.50
7389;BMP180;3735;50.136;11.062;2022-07-29T00:59:57;98104.00;;;17.50
7389;BMP180;3735;50.136;11.062;2022-07-29T01:02:23;98105.00;;;17.50
7389;BMP180;3735;50.136;11.062;2022-07-29T01:04:49;98105.00;;;17.50
7389;BMP180;3735;50.136;11.062;2022-07-29T01:07:17;98099.00;;;17.40
7389;BMP180;3735;50.136;11.062;2022-07-29T01:09:45;98099.00;;;17.30
7389;BMP180;3735;50.136;11.062;2022-07-29T01:12:26;98081.00;;;17.30
7389;BMP180;3735;50.136;11.062;2022-07-29T01:14:54;98099.00;;;17.30
7389;BMP180;3735;50.136;11.062;2022-07-29T01:26:42;98084.00;;;17.30
7389;BMP180;3735;50.136;11.062;2022-07-29T01:29:48;98077.00;;;17.30
7389;BMP180;3735;50.136;11.062;2022-07-29T01:32:22;98071.00;;;17.20
7389;BMP180;3735;50.136;11.062;2022-07-29T01:35:21;98080.00;;;17.20
7389;BMP180;3735;50.136;11.062;2022-07-29T01:38:10;98077.00;;;17.10
7389;BMP180;3735;50.136;11.062;2022-07-29T01:40:46;98075.00;;;17.00
7389;BMP180;3735;50.136;11.062;2022-07-29T01:43:27;98074.00;;;17.00
7389;BMP180;3735;50.136;11.062;2022-07-29T01:46:01;98069.00;;;16.90
7389;BMP180;3735;50.136;11.062;2022-07-29T01:48:42;98069.00;;;16.80
7389;BMP180;3735;50.136;11.062;2022-07-29T01:51:24;98070.00;;;16.90
7389;BMP180;3735;50.136;11.062;2022-07-29T01:54:08;98067.00;;;16.90
7389;BMP180;3735;50.136;11.062;2022-07-29T01:56:39;98070.00;;;17.00
7389;BMP180;3735;50.136;11.062;2022-07-29T01:59:07;98069.00;;;17.00
7389;BMP180;3735;50.136;11.062;2022-07-29T02:01:35;98072.00;;;17.10
7389;BMP180;3735;50.136;11.062;2022-07-29T02:04:05;98072.00;;;17.10
7389;BMP180;3735;50.136;11.062;2022-07-29T02:06:33;98068.00;;;17.10
7389;BMP180;3735;50.136;11.062;2022-07-29T02:09:01;98062.00;;;17.10
7389;BMP180;3735;50.136;11.062;2022-07-29T02:11:31;98066.00;;;17.10
7389;BMP180;3735;50.136;11.062;2022-07-29T02:14:00;98068.00;;;17.10
7389;BMP180;3735;50.136;11.062;2022-07-29T02:16:28;98071.00;;;17.10
7389;BMP180;3735;50.136;11.062;2022-07-29T02:19:00;98059.00;;;17.10
7389;BMP180;3735;50.136;11.062;2022-07-29T02:21:29;98059.00;;;17.10
7389;BMP180;3735;50.136;11.062;2022-07-29T02:24:00;98051.00;;;17.10
7389;BMP180;3735;50.136;11.062;2022-07-29T02:26:29;98054.00;;;17.10
7389;BMP180;3735;50.136;11.062;2022-07-29T02:28:58;98058.00;;;17.00
7389;BMP180;3735;50.136;11.062;2022-07-29T02:31:30;98056.00;;;17.10
7389;BMP180;3735;50.136;11.062;2022-07-29T02:34:02;98059.00;;;17.00
7389;BMP180;3735;50.136;11.062;2022-07-29T02:36:30;98055.00;;;17.10
7389;BMP180;3735;50.136;11.062;2022-07-29T02:38:59;98057.00;;;17.00
7389;BMP180;3735;50.136;11.062;2022-07-29T02:41:43;98059.00;;;17.00
7389;BMP180;3735;50.136;11.062;2022-07-29T02:44:19;98059.00;;;17.00
7389;BMP180;3735;50.136;11.062;2022-07-29T02:49:43;98052.00;;;16.80
7389;BMP180;3735;50.136;11.062;2022-07-29T02:52:26;98051.00;;;16.70
7389;BMP180;3735;50.136;11.062;2022-07-29T02:55:00;98044.00;;;16.60
7389;BMP180;3735;50.136;11.062;2022-07-29T02:57:36;98061.00;;;16.70
7389;BMP180;3735;50.136;11.062;2022-07-29T03:00:08;98065.00;;;16.60
7389;BMP180;3735;50.136;11.062;2022-07-29T03:02:43;98063.00;;;16.60
7389;BMP180;3735;50.136;11.062;2022-07-29T03:05:17;98066.00;;;16.60
7389;BMP180;3735;50.136;11.062;2022-07-29T03:10:46;98069.00;;;16.40
7389;BMP180;3735;50.136;11.062;2022-07-29T03:13:13;98066.00;;;16.40
7389;BMP180;3735;50.136;11.062;2022-07-29T03:15:43;98068.00;;;16.30
7389;BMP180;3735;50.136;11.062;2022-07-29T03:18:09;98068.00;;;16.30
7389;BMP180;3735;50.136;11.062;2022-07-29T03:20:37;98078.00;;;16.20
7389;BMP180;3735;50.136;11.062;2022-07-29T03:23:03;98079.00;;;16.20
7389;BMP180;3735;50.136;11.062;2022-07-29T03:25:30;98081.00;;;16.10
7389;BMP180;3735;50.136;11.062;2022-07-29T03:27:56;98085.00;;;16.10
7389;BMP180;3735;50.136;11.062;2022-07-29T03:30:23;98087.00;;;16.00
7389;BMP180;3735;50.136;11.062;2022-07-29T03:32:51;98081.00;;;16.00
7389;BMP180;3735;50.136;11.062;2022-07-29T03:35:17;98074.00;;;16.00
7389;BMP180;3735;50.136;11.062;2022-07-29T03:37:44;98079.00;;;16.00
7389;BMP180;3735;50.136;11.062;2022-07-29T03:40:17;98074.00;;;16.00
7389;BMP180;3735;50.136;11.062;2022-07-29T03:42:45;98079.00;;;16.00
7389;BMP180;3735;50.136;11.062;2022-07-29T03:45:18;98086.00;;;15.90
7389;BMP180;3735;50.136;11.062;2022-07-29T03:47:53;98087.00;;;15.90
7389;BMP180;3735;50.136;11.062;2022-07-29T03:50:21;98097.00;;;15.90
7389;BMP180;3735;50.136;11.062;2022-07-29T03:52:48;98082.00;;;15.90
7389;BMP180;3735;50.136;11.062;2022-07-29T03:55:15;98090.00;;;15.90
7389;BMP180;3735;50.136;11.062;2022-07-29T03:57:42;98082.00;;;15.80
7389;BMP180;3735;50.136;11.062;2022-07-29T04:00:10;98080.00;;;15.80
7389;BMP180;3735;50.136;11.062;2022-07-29T04:02:38;98087.00;;;15.70
7389;BMP180;3735;50.136;11.062;2022-07-29T04:05:05;98084.00;;;15.70
7389;BMP180;3735;50.136;11.062;2022-07-29T04:07:30;98088.00;;;15.60
7389;BMP180;3735;50.136;11.062;2022-07-29T04:09:56;98086.00;;;15.50
7389;BMP180;3735;50.136;11.062;2022-07-29T04:12:22;98076.00;;;15.50
7389;BMP180;3735;50.136;11.062;2022-07-29T04:14:48;98079.00;;;15.40
7389;BMP180;3735;50.136;11.062;2022-07-29T04:17:14;98080.00;;;15.40
7389;BMP180;3735;50.136;11.062;2022-07-29T04:19:39;98082.00;;;15.30
7389;BMP180;3735;50.136;11.062;2022-07-29T04:22:05;98078.00;;;15.30
7389;BMP180;3735;50.136;11.062;2022-07-29T04:24:31;98083.00;;;15.30
7389;BMP180;3735;50.136;11.062;2022-07-29T04:26:57;98081.00;;;15.30
7389;BMP180;3735;50.136;11.062;2022-07-29T04:29:22;98084.00;;;15.30
7389;BMP180;3735;50.136;11.062;2022-07-29T04:31:48;98084.00;;;15.30
7389;BMP180;3735;50.136;11.062;2022-07-29T04:34:14;98090.00;;;15.40
7389;BMP180;3735;50.136;11.062;2022-07-29T04:36:40;98085.00;;;15.50
7389;BMP180;3735;50.136;11.062;2022-07-29T04:39:06;98088.00;;;15.60
7389;BMP180;3735;50.136;11.062;2022-07-29T04:41:32;98079.00;;;15.60
7389;BMP180;3735;50.136;11.062;2022-07-29T04:43:58;98084.00;;;15.70
7389;BMP180;3735;50.136;11.062;2022-07-29T04:46:26;98076.00;;;15.80
7389;BMP180;3735;50.136;11.062;2022-07-29T04:48:52;98078.00;;;15.90
7389;BMP180;3735;50.136;11.062;2022-07-29T04:51:18;98078.00;;;16.10
7389;BMP180;3735;50.136;11.062;2022-07-29T04:53:43;98071.00;;;16.20
7389;BMP180;3735;50.136;11.062;2022-07-29T04:56:09;98071.00;;;16.30
7389;BMP180;3735;50.136;11.062;2022-07-29T04:58:35;98063.00;;;16.50
7389;BMP180;3735;50.136;11.062;2022-07-29T05:01:02;98070.00;;;16.70
7389;BMP180;3735;50.136;11.062;2022-07-29T05:03:28;98069.00;;;17.00
7389;BMP180;3735;50.136;11.062;2022-07-29T05:05:53;98078.00;;;17.20
7389;BMP180;3735;50.136;11.062;2022-07-29T05:08:19;98084.00;;;17.40
7389;BMP180;3735;50.136;11.062;2022-07-29T05:10:45;98080.00;;;17.80
7389;BMP180;3735;50.136;11.062;2022-07-29T05:13:11;98078.00;;;18.20
7389;BMP180;3735;50.136;11.062;2022-07-29T05:15:37;98077.00;;;18.50
7389;BMP180;3735;50.136;11.062;2022-07-29T05:18:03;98078.00;;;18.80
7389;BMP180;3735;50.136;11.062;2022-07-29T05:20:30;98078.00;;;19.20
7389;BMP180;3735;50.136;11.062;2022-07-29T05:23:01;98080.00;;;19.50
7389;BMP180;3735;50.136;11.062;2022-07-29T05:25:28;98072.00;;;19.80
7389;BMP180;3735;50.136;11.062;2022-07-29T05:27:55;98075.00;;;20.10
7389;BMP180;3735;50.136;11.062;2022-07-29T05:30:21;98073.00;;;20.40
7389;BMP180;3735;50.136;11.062;2022-07-29T05:32:47;98078.00;;;20.80
7389;BMP180;3735;50.136;11.062;2022-07-29T05:35:14;98072.00;;;21.40
7389;BMP180;3735;50.136;11.062;2022-07-29T05:37:40;98065.00;;;21.50
7389;BMP180;3735;50.136;11.062;2022-07-29T05:40:08;98061.00;;;21.70
7389;BMP180;3735;50.136;11.062;2022-07-29T05:42:34;98066.00;;;22.00
7389;BMP180;3735;50.136;11.062;2022-07-29T05:45:01;98075.00;;;22.10
7389;BMP180;3735;50.136;11.062;2022-07-29T05:47:27;98067.00;;;22.10
7389;BMP180;3735;50.136;11.062;2022-07-29T05:49:53;98075.00;;;22.30
7389;BMP180;3735;50.136;11.062;2022-07-29T05:52:20;98071.00;;;22.50
7389;BMP180;3735;50.136;11.062;2022-07-29T05:54:47;98073.00;;;22.50
7389;BMP180;3735;50.136;11.062;2022-07-29T05:57:22;98069.00;;;23.10
7389;BMP180;3735;50.136;11.062;2022-07-29T05:59:49;98073.00;;;24.60
7389;BMP180;3735;50.136;11.062;2022-07-29T06:02:15;98071.00;;;25.00
7389;BMP180;3735;50.136;11.062;2022-07-29T06:04:41;98069.00;;;24.80
7389;BMP180;3735;50.136;11.062;2022-07-29T06:07:07;98065.00;;;24.70
7389;BMP180;3735;50.136;11.062;2022-07-29T06:09:34;98066.00;;;24.30
7389;BMP180;3735;50.136;11.062;2022-07-29T06:12:00;98073.00;;;23.90
7389;BMP180;3735;50.136;11.062;2022-07-29T06:14:26;98072.00;;;24.10
7389;BMP180;3735;50.136;11.062;2022-07-29T06:16:54;98057.00;;;24.10
7389;BMP180;3735;50.136;11.062;2022-07-29T06:19:20;98061.00;;;24.00
7389;BMP180;3735;50.136;11.062;2022-07-29T06:21:46;98065.00;;;24.00
7389;BMP180;3735;50.136;11.062;2022-07-29T06:24:14;98067.00;;;25.40
7389;BMP180;3735;50.136;11.062;2022-07-29T06:26:41;98054.00;;;26.80
7389;BMP180;3735;50.136;11.062;2022-07-29T06:29:08;98059.00;;;28.50
7389;BMP180;3735;50.136;11.062;2022-07-29T06:31:36;98052.00;;;29.20
7389;BMP180;3735;50.136;11.062;2022-07-29T06:34:03;98056.00;;;29.20
7389;BMP180;3735;50.136;11.062;2022-07-29T06:36:29;98055.00;;;29.40
7389;BMP180;3735;50.136;11.062;2022-07-29T06:38:55;98053.00;;;29.20
7389;BMP180;3735;50.136;11.062;2022-07-29T06:41:21;98065.00;;;29.10
7389;BMP180;3735;50.136;11.062;2022-07-29T06:43:48;98057.00;;;29.00
7389;BMP180;3735;50.136;11.062;2022-07-29T06:46:18;98069.00;;;29.00
7389;BMP180;3735;50.136;11.062;2022-07-29T06:48:44;98059.00;;;29.50
7389;BMP180;3735;50.136;11.062;2022-07-29T06:51:11;98072.00;;;29.40
7389;BMP180;3735;50.136;11.062;2022-07-29T06:53:38;98070.00;;;28.40
7389;BMP180;3735;50.136;11.062;2022-07-29T06:56:06;98070.00;;;27.40
7389;BMP180;3735;50.136;11.062;2022-07-29T06:58:35;98069.00;;;26.50
7389;BMP180;3735;50.136;11.062;2022-07-29T07:01:03;98070.00;;;25.80
7389;BMP180;3735;50.136;11.062;2022-07-29T07:03:30;98067.00;;;25.50
7389;BMP180;3735;50.136;11.062;2022-07-29T07:05:56;98073.00;;;25.20
7389;BMP180;3735;50.136;11.062;2022-07-29T07:08:23;98072.00;;;25.20
7389;BMP180;3735;50.136;11.062;2022-07-29T07:10:50;98066.00;;;25.90
7389;BMP180;3735;50.136;11.062;2022-07-29T07:13:16;98056.00;;;27.40
7389;BMP180;3735;50.136;11.062;2022-07-29T07:15:46;98052.00;;;28.90
7389;BMP180;3735;50.136;11.062;2022-07-29T07:18:14;98049.00;;;30.10
7389;BMP180;3735;50.136;11.062;2022-07-29T07:20:41;98057.00;;;31.10
7389;BMP180;3735;50.136;11.062;2022-07-29T07:23:06;98048.00;;;31.80
7389;BMP180;3735;50.136;11.062;2022-07-29T07:25:32;98060.00;;;32.70
7389;BMP180;3735;50.136;11.062;2022-07-29T07:27:58;98054.00;;;33.50
7389;BMP180;3735;50.136;11.062;2022-07-29T07:30:30;98060.00;;;34.30
7389;BMP180;3735;50.136;11.062;2022-07-29T07:32:56;98062.00;;;34.30
7389;BMP180;3735;50.136;11.062;2022-07-29T07:35:22;98060.00;;;33.30
7389;BMP180;3735;50.136;11.062;2022-07-29T07:37:48;98059.00;;;32.80
7389;BMP180;3735;50.136;11.062;2022-07-29T07:40:14;98056.00;;;31.70
7389;BMP180;3735;50.136;11.062;2022-07-29T07:42:40;98053.00;;;32.30
7389;BMP180;3735;50.136;11.062;2022-07-29T07:45:08;98054.00;;;33.70
7389;BMP180;3735;50.136;11.062;2022-07-29T07:47:37;98055.00;;;34.90
7389;BMP180;3735;50.136;11.062;2022-07-29T07:50:11;98055.00;;;35.70
7389;BMP180;3735;50.136;11.062;2022-07-29T07:52:50;98059.00;;;36.50
7389;BMP180;3735;50.136;11.062;2022-07-29T07:55:18;98065.00;;;37.30
7389;BMP180;3735;50.136;11.062;2022-07-29T07:57:45;98062.00;;;37.70
7389;BMP180;3735;50.136;11.062;2022-07-29T08:00:13;98065.00;;;38.00
7389;BMP180;3735;50.136;11.062;2022-07-29T08:02:40;98066.00;;;37.80
7389;BMP180;3735;50.136;11.062;2022-07-29T08:05:07;98067.00;;;37.90
7389;BMP180;3735;50.136;11.062;2022-07-29T08:07:33;98065.00;;;37.90
7389;BMP180;3735;50.136;11.062;2022-07-29T08:09:59;98065.00;;;38.40
7389;BMP180;3735;50.136;11.062;2022-07-29T08:12:25;98059.00;;;38.60
7389;BMP180;3735;50.136;11.062;2022-07-29T08:14:51;98069.00;;;37.90
7389;BMP180;3735;50.136;11.062;2022-07-29T08:17:17;98066.00;;;37.60
7389;BMP180;3735;50.136;11.062;2022-07-29T08:19:42;98068.00;;;37.70
7389;BMP180;3735;50.136;11.062;2022-07-29T08:22:08;98069.00;;;38.10
7389;BMP180;3735;50.136;11.062;2022-07-29T08:24:34;98070.00;;;38.30
7389;BMP180;3735;50.136;11.062;2022-07-29T08:27:10;98081.00;;;37.70
7389;BMP180;3735;50.136;11.062;2022-07-29T08:29:36;98076.00;;;37.00
7389;BMP180;3735;50.136;11.062;2022-07-29T08:32:06;98071.00;;;35.70
7389;BMP180;3735;50.136;11.062;2022-07-29T08:34:32;98076.00;;;34.50
7389;BMP180;3735;50.136;11.062;2022-07-29T08:36:59;98066.00;;;34.30
7389;BMP180;3735;50.136;11.062;2022-07-29T08:39:25;98072.00;;;35.30
7389;BMP180;3735;50.136;11.062;2022-07-29T08:41:51;98073.00;;;36.50
7389;BMP180;3735;50.136;11.062;2022-07-29T08:44:20;98078.00;;;37.80
7389;BMP180;3735;50.136;11.062;2022-07-29T08:46:48;98078.00;;;36.90
7389;BMP180;3735;50.136;11.062;2022-07-29T08:49:15;98067.00;;;36.20
7389;BMP180;3735;50.136;11.062;2022-07-29T08:51:41;98063.00;;;35.90
7389;BMP180;3735;50.136;11.062;2022-07-29T08:54:09;98062.00;;;35.60
7389;BMP180;3735;50.136;11.062;2022-07-29T08:56:37;98068.00;;;35.30
7389;BMP180;3735;50.136;11.062;2022-07-29T08:59:05;98073.00;;;35.00
7389;BMP180;3735;50.136;11.062;2022-07-29T09:01:33;98073.00;;;34.70
7389;BMP180;3735;50.136;11.062;2022-07-29T09:04:06;98070.00;;;33.90
7389;BMP180;3735;50.136;11.062;2022-07-29T09:06:42;98067.00;;;34.10
7389;BMP180;3735;50.136;11.062;2022-07-29T09:09:08;98052.00;;;34.60
7389;BMP180;3735;50.136;11.062;2022-07-29T09:11:35;98059.00;;;35.10
7389;BMP180;3735;50.136;11.062;2022-07-29T09:14:01;98064.00;;;35.60
7389;BMP180;3735;50.136;11.062;2022-07-29T09:16:45;98062.00;;;34.90
7389;BMP180;3735;50.136;11.062;2022-07-29T09:19:43;98069.00;;;34.10
7389;BMP180;3735;50.136;11.062;2022-07-29T09:22:09;98068.00;;;33.20
7389;BMP180;3735;50.136;11.062;2022-07-29T09:24:45;98064.00;;;32.90
7389;BMP180;3735;50.136;11.062;2022-07-29T09:27:23;98061.00;;;32.30
7389;BMP180;3735;50.136;11.062;2022-07-29T09:30:06;98055.00;;;32.00
7389;BMP180;3735;50.136;11.062;2022-07-29T09:32:54;98063.00;;;31.80
7389;BMP180;3735;50.136;11.062;2022-07-29T09:35:25;98055.00;;;31.80
7389;BMP180;3735;50.136;11.062;2022-07-29T09:37:52;98050.00;;;31.70
7389;BMP180;3735;50.136;11.062;2022-07-29T09:40:25;98054.00;;;31.60
7389;BMP180;3735;50.136;11.062;2022-07-29T09:42:51;98058.00;;;31.80
7389;BMP180;3735;50.136;11.062;2022-07-29T09:45:31;98050.00;;;31.80
7389;BMP180;3735;50.136;11.062;2022-07-29T09:47:58;98057.00;;;31.70
7389;BMP180;3735;50.136;11.062;2022-07-29T09:50:39;98055.00;;;31.40
7389;BMP180;3735;50.136;11.062;2022-07-29T09:53:06;98055.00;;;31.40
7389;BMP180;3735;50.136;11.062;2022-07-29T09:55:49;98061.00;;;31.30
7389;BMP180;3735;50.136;11.062;2022-07-29T09:58:21;98059.00;;;30.90
7389;BMP180;3735;50.136;11.062;2022-07-29T10:00:50;98051.00;;;30.40
7389;BMP180;3735;50.136;11.062;2022-07-29T10:03:17;98065.00;;;30.00
7389;BMP180;3735;50.136;11.062;2022-07-29T10:05:44;98061.00;;;29.80
7389;BMP180;3735;50.136;11.062;2022-07-29T10:08:13;98065.00;;;29.40
7389;BMP180;3735;50.136;11.062;2022-07-29T10:10:50;98065.00;;;29.00
7389;BMP180;3735;50.136;11.062;2022-07-29T10:13:18;98072.00;;;28.50
7389;BMP180;3735;50.136;11.062;2022-07-29T10:15:44;98081.00;;;27.40
7389;BMP180;3735;50.136;11.062;2022-07-29T10:18:16;98094.00;;;26.70
7389;BMP180;3735;50.136;11.062;2022-07-29T10:20:45;98087.00;;;25.90
7389;BMP180;3735;50.136;11.062;2022-07-29T10:23:12;98105.00;;;25.30
7389;BMP180;3735;50.136;11.062;2022-07-29T10:25:38;98097.00;;;24.80
7389;BMP180;3735;50.136;11.062;2022-07-29T10:28:06;98104.00;;;24.30
7389;BMP180;3735;50.136;11.062;2022-07-29T10:30:31;98115.00;;;24.00
7389;BMP180;3735;50.136;11.062;2022-07-29T10:33:35;98153.00;;;22.30
7389;BMP180;3735;50.136;11.062;2022-07-29T10:36:38;98168.00;;;20.50
7389;BMP180;3735;50.136;11.062;2022-07-29T10:42:21;98180.00;;;19.30
7389;BMP180;3735;50.136;11.062;2022-07-29T10:44:56;98193.00;;;18.90
7389;BMP180;3735;50.136;11.062;2022-07-29T10:47:23;98187.00;;;18.70
7389;BMP180;3735;50.136;11.062;2022-07-29T10:50:15;98176.00;;;18.70
7389;BMP180;3735;50.136;11.062;2022-07-29T10:55:40;98177.00;;;18.80
7389;BMP180;3735;50.136;11.062;2022-07-29T10:58:22;98174.00;;;18.80
7389;BMP180;3735;50.136;11.062;2022-07-29T11:00:55;98168.00;;;18.90
7389;BMP180;3735;50.136;11.062;2022-07-29T11:03:47;98144.00;;;19.50
7389;BMP180;3735;50.136;11.062;2022-07-29T11:06:14;98146.00;;;20.50
7389;BMP180;3735;50.136;11.062;2022-07-29T11:08:40;98130.00;;;21.60
7389;BMP180;3735;50.136;11.062;2022-07-29T11:16:14;98110.00;;;25.80
7389;BMP180;3735;50.136;11.062;2022-07-29T11:21:42;98105.00;;;27.30
7389;BMP180;3735;50.136;11.062;2022-07-29T11:24:24;98081.00;;;27.90
7389;BMP180;3735;50.136;11.062;2022-07-29T11:27:19;98084.00;;;29.00
7389;BMP180;3735;50.136;11.062;2022-07-29T11:29:54;98075.00;;;30.30
7389;BMP180;3735;50.136;11.062;2022-07-29T11:32:23;98079.00;;;31.00
7389;BMP180;3735;50.136;11.062;2022-07-29T11:35:18;98078.00;;;31.50
7389;BMP180;3735;50.136;11.062;2022-07-29T11:41:26;98064.00;;;29.40
7389;BMP180;3735;50.136;11.062;2022-07-29T11:43:59;98070.00;;;29.20
7389;BMP180;3735;50.136;11.062;2022-07-29T11:46:46;98064.00;;;29.20
7389;BMP180;3735;50.136;11.062;2022-07-29T11:49:23;98060.00;;;29.10
7389;BMP180;3735;50.136;11.062;2022-07-29T11:51:53;98056.00;;;28.80
7389;BMP180;3735;50.136;11.062;2022-07-29T11:54:31;98050.00;;;28.90
7389;BMP180;3735;50.136;11.062;2022-07-29T11:56:58;98051.00;;;29.20
7389;BMP180;3735;50.136;11.062;2022-07-29T11:59:25;98041.00;;;29.00
7389;BMP180;3735;50.136;11.062;2022-07-29T12:01:54;98043.00;;;29.10
7389;BMP180;3735;50.136;11.062;2022-07-29T12:04:20;98047.00;;;28.80
7389;BMP180;3735;50.136;11.062;2022-07-29T12:06:53;98041.00;;;28.30
7389;BMP180;3735;50.136;11.062;2022-07-29T12:09:21;98042.00;;;28.50
7389;BMP180;3735;50.136;11.062;2022-07-29T12:11:48;98039.00;;;28.30
7389;BMP180;3735;50.136;11.062;2022-07-29T12:14:31;98055.00;;;28.40
7389;BMP180;3735;50.136;11.062;2022-07-29T12:16:59;98048.00;;;28.70
7389;BMP180;3735;50.136;11.062;2022-07-29T12:19:27;98047.00;;;28.60
7389;BMP180;3735;50.136;11.062;2022-07-29T12:21:55;98052.00;;;29.30
7389;BMP180;3735;50.136;11.062;2022-07-29T12:24:24;98045.00;;;29.80
7389;BMP180;3735;50.136;11.062;2022-07-29T12:27:08;98054.00;;;29.90
7389;BMP180;3735;50.136;11.062;2022-07-29T12:29:33;98050.00;;;29.90
7389;BMP180;3735;50.136;11.062;2022-07-29T12:31:59;98052.00;;;30.20
7389;BMP180;3735;50.136;11.062;2022-07-29T12:34:28;98049.00;;;30.70
7389;BMP180;3735;50.136;11.062;2022-07-29T12:36:54;98056.00;;;30.60
7389;BMP180;3735;50.136;11.062;2022-07-29T12:39:21;98051.00;;;31.50
7389;BMP180;3735;50.136;11.062;2022-07-29T12:41:47;98053.00;;;31.00
7389;BMP180;3735;50.136;11.062;2022-07-29T12:44:12;98058.00;;;31.10
7389;BMP180;3735;50.136;11.062;2022-07-29T12:46:38;98048.00;;;32.10
7389;BMP180;3735;50.136;11.062;2022-07-29T12:49:04;98050.00;;;32.50
7389;BMP180;3735;50.136;11.062;2022-07-29T12:51:40;98033.00;;;33.10
7389;BMP180;3735;50.136;11.062;2022-07-29T12:54:15;98039.00;;;32.70
7389;BMP180;3735;50.136;11.062;2022-07-29T12:56:44;98040.00;;;32.90
7389;BMP180;3735;50.136;11.062;2022-07-29T12:59:17;98045.00;;;32.50
7389;BMP180;3735;50.136;11.062;2022-07-29T13:01:44;98042.00;;;32.60
7389;BMP180;3735;50.136;11.062;2022-07-29T13:04:29;98048.00;;;33.80
7389;BMP180;3735;50.136;11.062;2022-07-29T13:07:03;98031.00;;;33.90
7389;BMP180;3735;50.136;11.062;2022-07-29T13:09:44;98040.00;;;34.10
7389;BMP180;3735;50.136;11.062;2022-07-29T13:12:14;98040.00;;;33.70
7389;BMP180;3735;50.136;11.062;2022-07-29T13:14:46;98036.00;;;33.00
7389;BMP180;3735;50.136;11.062;2022-07-29T13:17:18;98031.00;;;32.90
7389;BMP180;3735;50.136;11.062;2022-07-29T13:19:48;98026.00;;;32.20
7389;BMP180;3735;50.136;11.062;2022-07-29T13:22:17;98033.00;;;31.90
7389;BMP180;3735;50.136;11.062;2022-07-29T13:24:57;98021.00;;;32.20
7389;BMP180;3735;50.136;11.062;2022-07-29T13:27:28;98016.00;;;31.80
7389;BMP180;3735;50.136;11.062;2022-07-29T13:29:57;98013.00;;;32.50
7389;BMP180;3735;50.136;11.062;2022-07-29T13:32:26;98004.00;;;33.50
7389;BMP180;3735;50.136;11.062;2022-07-29T13:34:52;98006.00;;;34.20
7389;BMP180;3735;50.136;11.062;2022-07-29T13:37:19;98007.00;;;34.50
7389;BMP180;3735;50.136;11.062;2022-07-29T13:39:45;98006.00;;;34.00
7389;BMP180;3735;50.136;11.062;2022-07-29T13:42:11;98005.00;;;34.80
7389;BMP180;3735;50.136;11.062;2022-07-29T13:44:40;97995.00;;;35.40
7389;BMP180;3735;50.136;11.062;2022-07-29T13:47:07;97999.00;;;35.20
7389;BMP180;3735;50.136;11.062;2022-07-29T13:49:33;98000.00;;;34.50
7389;BMP180;3735;50.136;11.062;2022-07-29T13:51:59;97997.00;;;34.90
7389;BMP180;3735;50.136;11.062;2022-07-29T13:54:25;97991.00;;;35.20
7389;BMP180;3735;50.136;11.062;2022-07-29T13:56:51;97996.00;;;34.80
7389;BMP180;3735;50.136;11.062;2022-07-29T13:59:17;98000.00;;;35.10
7389;BMP180;3735;50.136;11.062;2022-07-29T14:01:43;98006.00;;;35.80
7389;BMP180;3735;50.136;11.062;2022-07-29T14:04:10;97999.00;;;36.30
7389;BMP180;3735;50.136;11.062;2022-07-29T14:06:36;97994.00;;;36.00
7389;BMP180;3735;50.136;11.062;2022-07-29T14:09:04;97988.00;;;35.60
7389;BMP180;3735;50.136;11.062;2022-07-29T14:11:36;97986.00;;;35.50
7389;BMP180;3735;50.136;11.062;2022-07-29T14:14:04;97984.00;;;36.10
7389;BMP180;3735;50.136;11.062;2022-07-29T14:16:30;97982.00;;;36.10
7389;BMP180;3735;50.136;11.062;2022-07-29T14:18:56;97979.00;;;36.30
7389;BMP180;3735;50.136;11.062;2022-07-29T14:21:21;97986.00;;;35.00
7389;BMP180;3735;50.136;11.062;2022-07-29T14:23:47;97987.00;;;34.40
7389;BMP180;3735;50.136;11.062;2022-07-29T14:26:13;97990.00;;;33.60
7389;BMP180;3735;50.136;11.062;2022-07-29T14:28:39;97981.00;;;32.40
7389;BMP180;3735;50.136;11.062;2022-07-29T14:31:05;97983.00;;;31.70
7389;BMP180;3735;50.136;11.062;2022-07-29T14:33:31;97980.00;;;31.80
7389;BMP180;3735;50.136;11.062;2022-07-29T14:35:56;97976.00;;;32.50
7389;BMP180;3735;50.136;11.062;2022-07-29T14:38:22;97973.00;;;32.70
7389;BMP180;3735;50.136;11.062;2022-07-29T14:40:48;97969.00;;;33.20
7389;BMP180;3735;50.136;11.062;2022-07-29T14:43:14;97965.00;;;33.30
7389;BMP180;3735;50.136;11.062;2022-07-29T14:45:40;97958.00;;;32.60
7389;BMP180;3735;50.136;11.062;2022-07-29T14:48:07;97959.00;;;32.40
7389;BMP180;3735;50.136;11.062;2022-07-29T14:50:33;97956.00;;;32.40
7389;BMP180;3735;50.136;11.062;2022-07-29T14:53:02;97956.00;;;32.30
7389;BMP180;3735;50.136;11.062;2022-07-29T14:55:28;97962.00;;;32.70
7389;BMP180;3735;50.136;11.062;2022-07-29T14:57:54;97952.00;;;31.90
7389;BMP180;3735;50.136;11.062;2022-07-29T15:00:21;97966.00;;;31.00
7389;BMP180;3735;50.136;11.062;2022-07-29T15:02:48;97971.00;;;30.80
7389;BMP180;3735;50.136;11.062;2022-07-29T15:05:14;97972.00;;;30.30
7389;BMP180;3735;50.136;11.062;2022-07-29T15:07:40;97978.00;;;29.90